sensor_id;sensor_type;location;lat;lon;timestamp;temperature;humidity
2459;DHT22;1241;50.920;6.936;2022-08-03T00:01:41;22.60;99.90
2459;DHT22;1241;50.920;6.936;2022-08-03T00:04:08;22.60;99.90
2459;DHT22;1241;50.920;6.936;2022-08-03T00:06:34;22.50;99.90
2459;DHT22;1241;50.920;6.936;2022-08-03T00:09:00;22.50;99.90
2459;DHT22;1241;50.920;6.936;2022-08-03T00:11:26;22.50;99.90
2459;DHT22;1241;50.920;6.936;2022-08-03T00:13:52;22.40;99.90
2459;DHT22;1241;50.920;6.936;2022-08-03T00:16:18;22.40;99.90
2459;DHT22;1241;50.920;6.936;2022-08-03T00:18:44;22.40;99.90
2459;DHT22;1241;50.920;6.936;2022-08-03T00:21:10;22.40;99.90
2459;DHT22;1241;50.920;6.936;2022-08-03T00:23:36;22.30;99.90
2459;DHT22;1241;50.920;6.936;2022-08-03T00:26:02;22.30;99.90
2459;DHT22;1241;50.920;6.936;2022-08-03T00:28:27;22.20;99.90
2459;DHT22;1241;50.920;6.936;2022-08-03T00:30:53;22.20;99.90
2459;DHT22;1241;50.920;6.936;2022-08-03T00:33:20;22.20;99.90
2459;DHT22;1241;50.920;6.936;2022-08-03T00:35:46;22.20;99.90
2459;DHT22;1241;50.920;6.936;2022-08-03T00:38:12;22.20;99.90
2459;DHT22;1241;50.920;6.936;2022-08-03T00:40:38;22.30;99.90
2459;DHT22;1241;50.920;6.936;2022-08-03T00:43:05;22.30;99.90
2459;DHT22;1241;50.920;6.936;2022-08-03T00:45:37;22.30;99.90
2459;DHT22;1241;50.920;6.936;2022-08-03T00:48:05;22.30;99.90
2459;DHT22;1241;50.920;6.936;2022-08-03T00:50:34;22.30;99.90
2459;DHT22;1241;50.920;6.936;2022-08-03T00:53:01;22.30;99.90
2459;DHT22;1241;50.920;6.936;2022-08-03T00:55:28;22.20;99.90
2459;DHT22;1241;50.920;6.936;2022-08-03T00:57:55;22.20;99.90
2459;DHT22;1241;50.920;6.936;2022-08-03T01:00:23;22.20;99.90
2459;DHT22;1241;50.920;6.936;2022-08-03T01:02:50;22.10;99.90
2459;DHT22;1241;50.920;6.936;2022-08-03T01:05:16;22.00;99.90
2459;DHT22;1241;50.920;6.936;2022-08-03T01:08:16;22.00;99.90
2459;DHT22;1241;50.920;6.936;2022-08-03T01:16:25;21.80;99.90
2459;DHT22;1241;50.920;6.936;2022-08-03T01:21:26;21.70;99.90
2459;DHT22;1241;50.920;6.936;2022-08-03T01:27:10;21.50;99.90
2459;DHT22;1241;50.920;6.936;2022-08-03T01:35:02;21.50;99.90
2459;DHT22;1241;50.920;6.936;2022-08-03T01:37:37;21.50;99.90
2459;DHT22;1241;50.920;6.936;2022-08-03T01:40:05;21.40;99.90
2459;DHT22;1241;50.920;6.936;2022-08-03T01:42:32;21.30;99.90
2459;DHT22;1241;50.920;6.936;2022-08-03T01:45:00;21.30;99.90
2459;DHT22;1241;50.920;6.936;2022-08-03T01:47:27;21.30;99.90
2459;DHT22;1241;50.920;6.936;2022-08-03T01:49:55;21.30;99.90
2459;DHT22;1241;50.920;6.936;2022-08-03T01:52:22;21.20;99.90
2459;DHT22;1241;50.920;6.936;2022-08-03T01:54:51;21.20;99.90
2459;DHT22;1241;50.920;6.936;2022-08-03T01:57:19;21.20;99.90
2459;DHT22;1241;50.920;6.936;2022-08-03T01:59:47;21.20;99.90
2459;DHT22;1241;50.920;6.936;2022-08-03T02:02:15;21.30;99.90
2459;DHT22;1241;50.920;6.936;2022-08-03T02:04:42;21.20;99.90
2459;DHT22;1241;50.920;6.936;2022-08-03T02:07:09;21.10;99.90
2459;DHT22;1241;50.920;6.936;2022-08-03T02:09:37;21.10;99.90
2459;DHT22;1241;50.920;6.936;2022-08-03T02:12:10;21.10;99.90
2459;DHT22;1241;50.920;6.936;2022-08-03T02:14:38;21.10;99.90
2459;DHT22;1241;50.920;6.936;2022-08-03T02:17:06;21.00;99.90
2459;DHT22;1241;50.920;6.936;2022-08-03T02:19:34;21.00;99.90
2459;DHT22;1241;50.920;6.936;2022-08-03T02:22:00;20.90;99.90
2459;DHT22;1241;50.920;6.936;2022-08-03T02:24:27;20.90;99.90
2459;DHT22;1241;50.920;6.936;2022-08-03T02:26:55;20.80;99.90
2459;DHT22;1241;50.920;6.936;2022-08-03T02:29:23;20.80;99.90
2459;DHT22;1241;50.920;6.936;2022-08-03T02:31:49;20.80;99.90
2459;DHT22;1241;50.920;6.936;2022-08-03T02:34:17;20.70;99.90
2459;DHT22;1241;50.920;6.936;2022-08-03T02:36:48;20.70;99.90
2459;DHT22;1241;50.920;6.936;2022-08-03T02:39:16;20.60;99.90
2459;DHT22;1241;50.920;6.936;2022-08-03T02:41:48;20.70;99.90
2459;DHT22;1241;50.920;6.936;2022-08-03T02:44:17;20.70;99.90
2459;DHT22;1241;50.920;6.936;2022-08-03T02:46:45;20.60;99.90
2459;DHT22;1241;50.920;6.936;2022-08-03T02:49:16;20.60;99.90
2459;DHT22;1241;50.920;6.936;2022-08-03T02:51:46;20.50;99.90
2459;DHT22;1241;50.920;6.936;2022-08-03T02:54:15;20.50;99.90
2459;DHT22;1241;50.920;6.936;2022-08-03T02:56:43;20.50;99.90
2459;DHT22;1241;50.920;6.936;2022-08-03T02:59:11;20.50;99.90
2459;DHT22;1241;50.920;6.936;2022-08-03T03:01:38;20.50;99.90
2459;DHT22;1241;50.920;6.936;2022-08-03T03:04:04;20.50;99.90
2459;DHT22;1241;50.920;6.936;2022-08-03T03:06:30;20.50;99.90
2459;DHT22;1241;50.920;6.936;2022-08-03T03:08:58;20.40;99.90
2459;DHT22;1241;50.920;6.936;2022-08-03T03:11:25;20.40;99.90
2459;DHT22;1241;50.920;6.936;2022-08-03T03:13:51;20.40;99.90
2459;DHT22;1241;50.920;6.936;2022-08-03T03:16:18;20.40;99.90
2459;DHT22;1241;50.920;6.936;2022-08-03T03:18:45;20.30;99.90
2459;DHT22;1241;50.920;6.936;2022-08-03T03:21:15;20.30;99.90
2459;DHT22;1241;50.920;6.936;2022-08-03T03:23:44;20.30;99.90
2459;DHT22;1241;50.920;6.936;2022-08-03T03:26:13;20.30;99.90
2459;DHT22;1241;50.920;6.936;2022-08-03T03:28:39;20.30;99.90
2459;DHT22;1241;50.920;6.936;2022-08-03T03:31:06;20.30;99.90
2459;DHT22;1241;50.920;6.936;2022-08-03T03:33:36;20.30;99.90
2459;DHT22;1241;50.920;6.936;2022-08-03T03:36:03;20.30;99.90
2459;DHT22;1241;50.920;6.936;2022-08-03T03:38:29;20.20;99.90
2459;DHT22;1241;50.920;6.936;2022-08-03T03:40:55;20.20;99.90
2459;DHT22;1241;50.920;6.936;2022-08-03T03:43:22;20.10;99.90
2459;DHT22;1241;50.920;6.936;2022-08-03T03:45:48;20.10;99.90
2459;DHT22;1241;50.920;6.936;2022-08-03T03:48:16;20.10;99.90
2459;DHT22;1241;50.920;6.936;2022-08-03T03:50:43;20.10;99.90
2459;DHT22;1241;50.920;6.936;2022-08-03T03:53:10;20.10;99.90
2459;DHT22;1241;50.920;6.936;2022-08-03T03:55:36;20.20;99.90
2459;DHT22;1241;50.920;6.936;2022-08-03T03:58:03;20.20;99.90
2459;DHT22;1241;50.920;6.936;2022-08-03T04:00:29;20.30;99.90
2459;DHT22;1241;50.920;6.936;2022-08-03T04:02:55;20.20;99.90
2459;DHT22;1241;50.920;6.936;2022-08-03T04:05:21;20.20;99.90
2459;DHT22;1241;50.920;6.936;2022-08-03T04:08:08;20.20;99.90
2459;DHT22;1241;50.920;6.936;2022-08-03T04:14:02;20.30;99.90
2459;DHT22;1241;50.920;6.936;2022-08-03T04:16:33;20.30;99.90
2459;DHT22;1241;50.920;6.936;2022-08-03T04:19:06;20.30;99.90
2459;DHT22;1241;50.920;6.936;2022-08-03T04:21:34;20.30;99.90
2459;DHT22;1241;50.920;6.936;2022-08-03T04:24:03;20.30;99.90
2459;DHT22;1241;50.920;6.936;2022-08-03T04:26:33;20.30;99.90
2459;DHT22;1241;50.920;6.936;2022-08-03T04:29:01;20.40;99.90
2459;DHT22;1241;50.920;6.936;2022-08-03T04:31:27;20.50;99.90
2459;DHT22;1241;50.920;6.936;2022-08-03T04:33:54;20.60;99.90
2459;DHT22;1241;50.920;6.936;2022-08-03T04:36:24;20.70;99.90
2459;DHT22;1241;50.920;6.936;2022-08-03T04:41:27;20.70;99.90
2459;DHT22;1241;50.920;6.936;2022-08-03T04:43:56;20.80;99.90
2459;DHT22;1241;50.920;6.936;2022-08-03T04:46:27;20.90;99.90
2459;DHT22;1241;50.920;6.936;2022-08-03T04:48:54;21.10;99.90
2459;DHT22;1241;50.920;6.936;2022-08-03T04:51:20;21.20;99.90
2459;DHT22;1241;50.920;6.936;2022-08-03T04:53:46;21.20;99.90
2459;DHT22;1241;50.920;6.936;2022-08-03T04:56:12;21.30;99.90
2459;DHT22;1241;50.920;6.936;2022-08-03T04:58:38;21.50;99.90
2459;DHT22;1241;50.920;6.936;2022-08-03T05:01:03;21.70;99.90
2459;DHT22;1241;50.920;6.936;2022-08-03T05:03:29;21.90;99.90
2459;DHT22;1241;50.920;6.936;2022-08-03T05:05:56;22.20;99.90
2459;DHT22;1241;50.920;6.936;2022-08-03T05:08:22;22.40;99.90
2459;DHT22;1241;50.920;6.936;2022-08-03T05:10:47;22.50;99.90
2459;DHT22;1241;50.920;6.936;2022-08-03T05:13:13;22.60;99.90
2459;DHT22;1241;50.920;6.936;2022-08-03T05:15:40;22.80;99.90
2459;DHT22;1241;50.920;6.936;2022-08-03T05:18:06;22.90;99.90
2459;DHT22;1241;50.920;6.936;2022-08-03T05:20:32;23.40;99.90
2459;DHT22;1241;50.920;6.936;2022-08-03T05:22:58;23.80;99.90
2459;DHT22;1241;50.920;6.936;2022-08-03T05:25:26;24.40;99.90
2459;DHT22;1241;50.920;6.936;2022-08-03T05:27:52;24.80;99.90
2459;DHT22;1241;50.920;6.936;2022-08-03T05:30:18;24.80;99.90
2459;DHT22;1241;50.920;6.936;2022-08-03T05:32:44;24.60;99.90
2459;DHT22;1241;50.920;6.936;2022-08-03T05:35:09;24.30;99.90
2459;DHT22;1241;50.920;6.936;2022-08-03T05:37:35;24.10;99.90
2459;DHT22;1241;50.920;6.936;2022-08-03T05:40:01;24.00;99.90
2459;DHT22;1241;50.920;6.936;2022-08-03T05:42:27;23.80;99.90
2459;DHT22;1241;50.920;6.936;2022-08-03T05:44:53;23.80;99.90
2459;DHT22;1241;50.920;6.936;2022-08-03T05:47:18;23.90;99.90
2459;DHT22;1241;50.920;6.936;2022-08-03T05:49:44;24.00;99.90
2459;DHT22;1241;50.920;6.936;2022-08-03T05:52:10;23.90;99.90
2459;DHT22;1241;50.920;6.936;2022-08-03T05:54:35;24.00;99.90
2459;DHT22;1241;50.920;6.936;2022-08-03T05:57:01;23.90;99.90
2459;DHT22;1241;50.920;6.936;2022-08-03T05:59:27;23.90;99.90
2459;DHT22;1241;50.920;6.936;2022-08-03T06:01:53;24.00;99.90
2459;DHT22;1241;50.920;6.936;2022-08-03T06:04:18;24.20;99.90
2459;DHT22;1241;50.920;6.936;2022-08-03T06:06:44;24.40;99.90
2459;DHT22;1241;50.920;6.936;2022-08-03T06:09:10;24.80;99.90
2459;DHT22;1241;50.920;6.936;2022-08-03T06:11:36;24.90;99.90
2459;DHT22;1241;50.920;6.936;2022-08-03T06:14:02;25.30;99.90
2459;DHT22;1241;50.920;6.936;2022-08-03T06:16:28;25.70;99.90
2459;DHT22;1241;50.920;6.936;2022-08-03T06:18:54;25.90;99.90
2459;DHT22;1241;50.920;6.936;2022-08-03T06:21:20;25.90;99.90
2459;DHT22;1241;50.920;6.936;2022-08-03T06:23:45;26.40;99.90
2459;DHT22;1241;50.920;6.936;2022-08-03T06:26:12;26.90;99.90
2459;DHT22;1241;50.920;6.936;2022-08-03T06:28:38;27.10;99.90
2459;DHT22;1241;50.920;6.936;2022-08-03T06:31:04;27.30;99.90
2459;DHT22;1241;50.920;6.936;2022-08-03T06:33:30;27.30;99.90
2459;DHT22;1241;50.920;6.936;2022-08-03T06:35:56;27.30;99.90
2459;DHT22;1241;50.920;6.936;2022-08-03T06:38:21;27.60;99.90
2459;DHT22;1241;50.920;6.936;2022-08-03T06:40:47;27.50;99.90
2459;DHT22;1241;50.920;6.936;2022-08-03T06:43:13;28.00;99.90
2459;DHT22;1241;50.920;6.936;2022-08-03T06:45:40;28.40;99.90
2459;DHT22;1241;50.920;6.936;2022-08-03T06:48:08;29.10;99.90
2459;DHT22;1241;50.920;6.936;2022-08-03T06:50:35;30.20;99.90
2459;DHT22;1241;50.920;6.936;2022-08-03T06:53:02;31.60;99.90
2459;DHT22;1241;50.920;6.936;2022-08-03T06:55:28;32.90;99.90
2459;DHT22;1241;50.920;6.936;2022-08-03T06:57:54;33.70;99.90
2459;DHT22;1241;50.920;6.936;2022-08-03T07:00:20;34.40;99.90
2459;DHT22;1241;50.920;6.936;2022-08-03T07:02:46;35.20;96.00
2459;DHT22;1241;50.920;6.936;2022-08-03T07:05:12;36.00;92.50
2459;DHT22;1241;50.920;6.936;2022-08-03T07:07:39;36.60;89.30
2459;DHT22;1241;50.920;6.936;2022-08-03T07:10:06;37.00;85.20
2459;DHT22;1241;50.920;6.936;2022-08-03T07:12:33;36.80;82.80
2459;DHT22;1241;50.920;6.936;2022-08-03T07:15:00;36.50;80.90
2459;DHT22;1241;50.920;6.936;2022-08-03T07:17:26;36.70;81.00
2459;DHT22;1241;50.920;6.936;2022-08-03T07:19:52;37.10;78.60
2459;DHT22;1241;50.920;6.936;2022-08-03T07:22:18;37.70;76.80
2459;DHT22;1241;50.920;6.936;2022-08-03T07:24:44;37.90;73.70
2459;DHT22;1241;50.920;6.936;2022-08-03T07:27:10;37.80;73.50
2459;DHT22;1241;50.920;6.936;2022-08-03T07:29:36;37.90;72.50
2459;DHT22;1241;50.920;6.936;2022-08-03T07:32:03;38.40;71.30
2459;DHT22;1241;50.920;6.936;2022-08-03T07:34:29;38.50;69.10
2459;DHT22;1241;50.920;6.936;2022-08-03T07:36:55;38.60;67.90
2459;DHT22;1241;50.920;6.936;2022-08-03T07:39:21;38.40;67.70
2459;DHT22;1241;50.920;6.936;2022-08-03T07:41:47;37.90;68.20
2459;DHT22;1241;50.920;6.936;2022-08-03T07:44:16;38.10;67.70
2459;DHT22;1241;50.920;6.936;2022-08-03T07:46:42;38.30;67.90
2459;DHT22;1241;50.920;6.936;2022-08-03T07:49:08;38.50;65.50
2459;DHT22;1241;50.920;6.936;2022-08-03T07:51:34;38.40;65.30
2459;DHT22;1241;50.920;6.936;2022-08-03T07:54:00;38.30;65.50
2459;DHT22;1241;50.920;6.936;2022-08-03T07:56:26;37.90;65.70
2459;DHT22;1241;50.920;6.936;2022-08-03T07:58:53;37.70;65.80
2459;DHT22;1241;50.920;6.936;2022-08-03T08:01:19;37.30;67.10
2459;DHT22;1241;50.920;6.936;2022-08-03T08:03:45;37.10;66.90
2459;DHT22;1241;50.920;6.936;2022-08-03T08:06:11;36.00;68.70
2459;DHT22;1241;50.920;6.936;2022-08-03T08:08:37;35.90;69.70
2459;DHT22;1241;50.920;6.936;2022-08-03T08:11:04;35.60;69.70
2459;DHT22;1241;50.920;6.936;2022-08-03T08:13:29;35.20;71.10
2459;DHT22;1241;50.920;6.936;2022-08-03T08:15:55;34.40;72.60
2459;DHT22;1241;50.920;6.936;2022-08-03T08:18:21;33.70;75.40
2459;DHT22;1241;50.920;6.936;2022-08-03T08:20:49;33.00;77.80
2459;DHT22;1241;50.920;6.936;2022-08-03T08:23:15;32.30;80.40
2459;DHT22;1241;50.920;6.936;2022-08-03T08:25:47;31.70;83.00
2459;DHT22;1241;50.920;6.936;2022-08-03T08:28:13;31.10;86.00
2459;DHT22;1241;50.920;6.936;2022-08-03T08:30:40;30.70;88.90
2459;DHT22;1241;50.920;6.936;2022-08-03T08:33:06;30.40;90.90
2459;DHT22;1241;50.920;6.936;2022-08-03T08:35:31;30.10;92.60
2459;DHT22;1241;50.920;6.936;2022-08-03T08:37:59;29.90;93.80
2459;DHT22;1241;50.920;6.936;2022-08-03T08:40:26;29.80;95.10
2459;DHT22;1241;50.920;6.936;2022-08-03T08:42:52;29.70;95.80
2459;DHT22;1241;50.920;6.936;2022-08-03T08:45:18;29.70;96.00
2459;DHT22;1241;50.920;6.936;2022-08-03T08:47:46;29.50;96.20
2459;DHT22;1241;50.920;6.936;2022-08-03T08:50:13;29.40;97.30
2459;DHT22;1241;50.920;6.936;2022-08-03T08:52:42;29.40;98.00
2459;DHT22;1241;50.920;6.936;2022-08-03T08:55:13;29.40;98.90
2459;DHT22;1241;50.920;6.936;2022-08-03T08:57:46;29.50;99.70
2459;DHT22;1241;50.920;6.936;2022-08-03T09:00:13;29.60;98.90
2459;DHT22;1241;50.920;6.936;2022-08-03T09:02:40;29.70;98.40
2459;DHT22;1241;50.920;6.936;2022-08-03T09:05:09;29.80;98.90
2459;DHT22;1241;50.920;6.936;2022-08-03T09:07:38;29.90;98.30
2459;DHT22;1241;50.920;6.936;2022-08-03T09:10:05;29.90;98.60
2459;DHT22;1241;50.920;6.936;2022-08-03T09:12:42;30.00;98.10
2459;DHT22;1241;50.920;6.936;2022-08-03T09:15:24;30.10;96.90
2459;DHT22;1241;50.920;6.936;2022-08-03T09:17:53;30.10;97.00
2459;DHT22;1241;50.920;6.936;2022-08-03T09:20:21;30.20;97.00
2459;DHT22;1241;50.920;6.936;2022-08-03T09:23:07;30.20;97.10
2459;DHT22;1241;50.920;6.936;2022-08-03T09:28:05;30.40;96.90
2459;DHT22;1241;50.920;6.936;2022-08-03T09:30:31;30.50;96.70
2459;DHT22;1241;50.920;6.936;2022-08-03T09:33:02;30.60;96.00
2459;DHT22;1241;50.920;6.936;2022-08-03T09:35:28;30.60;96.20
2459;DHT22;1241;50.920;6.936;2022-08-03T09:38:22;30.70;96.20
2459;DHT22;1241;50.920;6.936;2022-08-03T09:40:51;30.80;96.00
2459;DHT22;1241;50.920;6.936;2022-08-03T09:43:17;30.80;95.60
2459;DHT22;1241;50.920;6.936;2022-08-03T09:45:43;30.80;94.40
2459;DHT22;1241;50.920;6.936;2022-08-03T09:48:28;30.70;94.60
2459;DHT22;1241;50.920;6.936;2022-08-03T09:51:00;30.70;94.70
2459;DHT22;1241;50.920;6.936;2022-08-03T09:53:27;30.80;94.30
2459;DHT22;1241;50.920;6.936;2022-08-03T09:56:00;30.90;93.90
2459;DHT22;1241;50.920;6.936;2022-08-03T09:58:28;30.90;93.50
2459;DHT22;1241;50.920;6.936;2022-08-03T10:00:55;31.00;93.70
2459;DHT22;1241;50.920;6.936;2022-08-03T10:03:22;31.10;92.20
2459;DHT22;1241;50.920;6.936;2022-08-03T10:05:48;31.20;91.20
2459;DHT22;1241;50.920;6.936;2022-08-03T10:08:14;31.20;91.40
2459;DHT22;1241;50.920;6.936;2022-08-03T10:10:42;31.20;90.70
2459;DHT22;1241;50.920;6.936;2022-08-03T10:13:12;31.20;90.60
2459;DHT22;1241;50.920;6.936;2022-08-03T10:15:39;31.10;89.80
2459;DHT22;1241;50.920;6.936;2022-08-03T10:18:05;31.10;90.50
2459;DHT22;1241;50.920;6.936;2022-08-03T10:20:45;31.20;90.30
2459;DHT22;1241;50.920;6.936;2022-08-03T10:23:12;31.20;90.40
2459;DHT22;1241;50.920;6.936;2022-08-03T10:25:39;31.10;90.50
2459;DHT22;1241;50.920;6.936;2022-08-03T10:28:07;31.20;90.70
2459;DHT22;1241;50.920;6.936;2022-08-03T10:30:36;31.20;90.70
2459;DHT22;1241;50.920;6.936;2022-08-03T10:33:16;31.30;91.10
2459;DHT22;1241;50.920;6.936;2022-08-03T10:35:43;31.50;90.80
2459;DHT22;1241;50.920;6.936;2022-08-03T10:38:17;31.70;90.50
2459;DHT22;1241;50.920;6.936;2022-08-03T10:40:43;31.70;89.90
2459;DHT22;1241;50.920;6.936;2022-08-03T10:43:21;31.70;89.80
2459;DHT22;1241;50.920;6.936;2022-08-03T10:45:50;31.70;89.50
2459;DHT22;1241;50.920;6.936;2022-08-03T10:48:17;31.70;89.70
2459;DHT22;1241;50.920;6.936;2022-08-03T10:50:43;31.70;89.70
2459;DHT22;1241;50.920;6.936;2022-08-03T10:53:09;31.70;89.50
2459;DHT22;1241;50.920;6.936;2022-08-03T10:55:40;31.70;89.30
2459;DHT22;1241;50.920;6.936;2022-08-03T11:03:29;31.90;88.60
2459;DHT22;1241;50.920;6.936;2022-08-03T11:06:23;32.00;88.20
2459;DHT22;1241;50.920;6.936;2022-08-03T11:11:39;32.20;86.90
2459;DHT22;1241;50.920;6.936;2022-08-03T11:14:20;32.30;87.00
2459;DHT22;1241;50.920;6.936;2022-08-03T11:16:47;32.40;86.20
2459;DHT22;1241;50.920;6.936;2022-08-03T11:19:18;32.40;85.60
2459;DHT22;1241;50.920;6.936;2022-08-03T11:30:04;32.30;83.50
2459;DHT22;1241;50.920;6.936;2022-08-03T11:35:21;32.50;83.80
2459;DHT22;1241;50.920;6.936;2022-08-03T11:40:43;32.60;83.00
2459;DHT22;1241;50.920;6.936;2022-08-03T11:45:56;32.80;83.10
2459;DHT22;1241;50.920;6.936;2022-08-03T11:48:26;32.90;83.50
2459;DHT22;1241;50.920;6.936;2022-08-03T11:50:53;33.00;82.20
2459;DHT22;1241;50.920;6.936;2022-08-03T11:53:19;33.10;82.30
2459;DHT22;1241;50.920;6.936;2022-08-03T11:55:47;33.10;82.10
2459;DHT22;1241;50.920;6.936;2022-08-03T11:58:22;33.20;83.10
2459;DHT22;1241;50.920;6.936;2022-08-03T12:00:49;33.30;81.30
2459;DHT22;1241;50.920;6.936;2022-08-03T12:03:19;33.30;81.80
2459;DHT22;1241;50.920;6.936;2022-08-03T12:05:50;33.50;81.10
2459;DHT22;1241;50.920;6.936;2022-08-03T12:10:53;33.60;79.60
2459;DHT22;1241;50.920;6.936;2022-08-03T12:13:22;33.50;80.20
2459;DHT22;1241;50.920;6.936;2022-08-03T12:15:53;33.50;79.80
2459;DHT22;1241;50.920;6.936;2022-08-03T12:18:20;33.50;79.80
2459;DHT22;1241;50.920;6.936;2022-08-03T12:20:50;33.50;80.20
2459;DHT22;1241;50.920;6.936;2022-08-03T12:23:17;33.20;80.20
2459;DHT22;1241;50.920;6.936;2022-08-03T12:25:44;33.20;80.90
2459;DHT22;1241;50.920;6.936;2022-08-03T12:28:14;33.00;80.10
2459;DHT22;1241;50.920;6.936;2022-08-03T12:30:42;32.90;80.70
2459;DHT22;1241;50.920;6.936;2022-08-03T12:33:22;32.90;80.60
2459;DHT22;1241;50.920;6.936;2022-08-03T12:36:00;32.80;79.70
2459;DHT22;1241;50.920;6.936;2022-08-03T12:38:28;32.80;79.60
2459;DHT22;1241;50.920;6.936;2022-08-03T12:40:55;32.70;79.60
2459;DHT22;1241;50.920;6.936;2022-08-03T12:43:21;32.90;79.40
2459;DHT22;1241;50.920;6.936;2022-08-03T12:45:47;33.20;79.40
2459;DHT22;1241;50.920;6.936;2022-08-03T12:48:13;33.20;78.30
2459;DHT22;1241;50.920;6.936;2022-08-03T12:50:39;33.30;76.90
2459;DHT22;1241;50.920;6.936;2022-08-03T12:53:08;33.60;77.60
2459;DHT22;1241;50.920;6.936;2022-08-03T12:55:34;33.80;77.10
2459;DHT22;1241;50.920;6.936;2022-08-03T12:58:05;34.00;76.90
2459;DHT22;1241;50.920;6.936;2022-08-03T13:00:32;34.20;75.20
2459;DHT22;1241;50.920;6.936;2022-08-03T13:03:03;34.10;74.30
2459;DHT22;1241;50.920;6.936;2022-08-03T13:05:30;34.10;74.60
2459;DHT22;1241;50.920;6.936;2022-08-03T13:07:56;34.20;74.40
2459;DHT22;1241;50.920;6.936;2022-08-03T13:10:30;34.30;74.70
2459;DHT22;1241;50.920;6.936;2022-08-03T13:12:57;34.30;74.30
2459;DHT22;1241;50.920;6.936;2022-08-03T13:15:25;34.10;73.50
2459;DHT22;1241;50.920;6.936;2022-08-03T13:17:53;33.70;73.80
2459;DHT22;1241;50.920;6.936;2022-08-03T13:20:20;33.50;74.60
2459;DHT22;1241;50.920;6.936;2022-08-03T13:22:47;33.40;75.30
2459;DHT22;1241;50.920;6.936;2022-08-03T13:25:13;33.40;74.80
2459;DHT22;1241;50.920;6.936;2022-08-03T13:27:39;33.40;74.80
2459;DHT22;1241;50.920;6.936;2022-08-03T13:30:06;33.30;74.70
2459;DHT22;1241;50.920;6.936;2022-08-03T13:32:33;33.30;74.70
2459;DHT22;1241;50.920;6.936;2022-08-03T13:34:59;33.40;74.50
2459;DHT22;1241;50.920;6.936;2022-08-03T13:37:28;33.50;74.50
2459;DHT22;1241;50.920;6.936;2022-08-03T13:39:53;33.50;74.70
2459;DHT22;1241;50.920;6.936;2022-08-03T13:42:19;33.60;74.70
2459;DHT22;1241;50.920;6.936;2022-08-03T13:44:45;33.70;74.10
2459;DHT22;1241;50.920;6.936;2022-08-03T13:47:11;33.60;73.90
2459;DHT22;1241;50.920;6.936;2022-08-03T13:49:36;33.70;74.20
2459;DHT22;1241;50.920;6.936;2022-08-03T13:52:02;33.80;73.60
2459;DHT22;1241;50.920;6.936;2022-08-03T13:54:28;33.80;73.70
2459;DHT22;1241;50.920;6.936;2022-08-03T13:56:55;33.80;73.40
2459;DHT22;1241;50.920;6.936;2022-08-03T13:59:22;33.90;72.90
2459;DHT22;1241;50.920;6.936;2022-08-03T14:01:49;34.00;72.10
2459;DHT22;1241;50.920;6.936;2022-08-03T14:04:16;34.10;71.90
2459;DHT22;1241;50.920;6.936;2022-08-03T14:06:42;34.10;72.50
2459;DHT22;1241;50.920;6.936;2022-08-03T14:09:14;34.20;71.70
2459;DHT22;1241;50.920;6.936;2022-08-03T14:11:41;34.30;71.60
2459;DHT22;1241;50.920;6.936;2022-08-03T14:14:07;34.30;70.60
2459;DHT22;1241;50.920;6.936;2022-08-03T14:16:34;34.10;70.30
2459;DHT22;1241;50.920;6.936;2022-08-03T14:18:59;34.00;70.50
2459;DHT22;1241;50.920;6.936;2022-08-03T14:21:25;33.90;71.10
2459;DHT22;1241;50.920;6.936;2022-08-03T14:23:51;34.00;70.70
2459;DHT22;1241;50.920;6.936;2022-08-03T14:26:16;34.00;71.00
2459;DHT22;1241;50.920;6.936;2022-08-03T14:28:45;34.00;71.40
2459;DHT22;1241;50.920;6.936;2022-08-03T14:31:11;34.00;71.40
2459;DHT22;1241;50.920;6.936;2022-08-03T14:33:36;34.20;70.90
2459;DHT22;1241;50.920;6.936;2022-08-03T14:36:03;34.30;70.10
2459;DHT22;1241;50.920;6.936;2022-08-03T14:38:28;34.30;70.40
2459;DHT22;1241;50.920;6.936;2022-08-03T14:40:54;34.30;70.80
2459;DHT22;1241;50.920;6.936;2022-08-03T14:43:21;34.50;70.60
2459;DHT22;1241;50.920;6.936;2022-08-03T14:45:48;34.60;70.30
2459;DHT22;1241;50.920;6.936;2022-08-03T14:48:17;34.60;69.10
2459;DHT22;1241;50.920;6.936;2022-08-03T14:50:43;34.60;69.00
2459;DHT22;1241;50.920;6.936;2022-08-03T14:53:09;34.60;68.80
2459;DHT22;1241;50.920;6.936;2022-08-03T14:55:34;34.60;69.20
2459;DHT22;1241;50.920;6.936;2022-08-03T14:58:00;34.70;69.20
2459;DHT22;1241;50.920;6.936;2022-08-03T15:00:31;34.80;69.00
2459;DHT22;1241;50.920;6.936;2022-08-03T15:02:57;34.80;68.20
2459;DHT22;1241;50.920;6.936;2022-08-03T15:05:22;34.90;68.40
2459;DHT22;1241;50.920;6.936;2022-08-03T15:07:48;34.90;68.50
2459;DHT22;1241;50.920;6.936;2022-08-03T15:10:14;34.90;67.60
2459;DHT22;1241;50.920;6.936;2022-08-03T15:12:40;34.70;67.60
2459;DHT22;1241;50.920;6.936;2022-08-03T15:15:06;34.60;68.20
2459;DHT22;1241;50.920;6.936;2022-08-03T15:17:31;34.50;67.70
2459;DHT22;1241;50.920;6.936;2022-08-03T15:19:57;34.40;67.90
2459;DHT22;1241;50.920;6.936;2022-08-03T15:22:23;34.40;67.70
2459;DHT22;1241;50.920;6.936;2022-08-03T15:24:49;34.30;67.90
2459;DHT22;1241;50.920;6.936;2022-08-03T15:27:14;34.30;67.80
2459;DHT22;1241;50.920;6.936;2022-08-03T15:29:40;34.30;67.40
2459;DHT22;1241;50.920;6.936;2022-08-03T15:32:06;34.30;67.50
2459;DHT22;1241;50.920;6.936;2022-08-03T15:34:32;34.20;67.60
2459;DHT22;1241;50.920;6.936;2022-08-03T15:36:57;34.20;68.10
2459;DHT22;1241;50.920;6.936;2022-08-03T15:39:23;34.00;68.10
2459;DHT22;1241;50.920;6.936;2022-08-03T15:41:49;33.90;68.50
2459;DHT22;1241;50.920;6.936;2022-08-03T15:44:18;33.80;68.80
2459;DHT22;1241;50.920;6.936;2022-08-03T15:46:43;33.80;68.80
2459;DHT22;1241;50.920;6.936;2022-08-03T15:49:09;33.90;68.90
2459;DHT22;1241;50.920;6.936;2022-08-03T15:51:35;33.90;69.00
2459;DHT22;1241;50.920;6.936;2022-08-03T15:54:02;33.90;69.30
2459;DHT22;1241;50.920;6.936;2022-08-03T15:56:29;33.90;69.00
2459;DHT22;1241;50.920;6.936;2022-08-03T15:58:54;33.90;68.80
2459;DHT22;1241;50.920;6.936;2022-08-03T16:01:22;33.80;68.90
2459;DHT22;1241;50.920;6.936;2022-08-03T16:03:49;33.80;69.20
2459;DHT22;1241;50.920;6.936;2022-08-03T16:06:16;33.90;69.20
2459;DHT22;1241;50.920;6.936;2022-08-03T16:08:41;33.90;68.90
2459;DHT22;1241;50.920;6.936;2022-08-03T16:11:07;33.80;68.90
2459;DHT22;1241;50.920;6.936;2022-08-03T16:13:33;33.70;69.30
2459;DHT22;1241;50.920;6.936;2022-08-03T16:15:59;33.70;69.30
2459;DHT22;1241;50.920;6.936;2022-08-03T16:18:25;33.60;69.60
2459;DHT22;1241;50.920;6.936;2022-08-03T16:20:50;33.60;69.80
2459;DHT22;1241;50.920;6.936;2022-08-03T16:23:16;33.50;70.00
2459;DHT22;1241;50.920;6.936;2022-08-03T16:25:45;33.50;70.70
2459;DHT22;1241;50.920;6.936;2022-08-03T16:28:11;33.50;70.20
2459;DHT22;1241;50.920;6.936;2022-08-03T16:30:37;33.50;69.70
2459;DHT22;1241;50.920;6.936;2022-08-03T16:33:03;33.60;69.90
2459;DHT22;1241;50.920;6.936;2022-08-03T16:35:29;33.60;69.90
2459;DHT22;1241;50.920;6.936;2022-08-03T16:37:56;33.70;69.80
2459;DHT22;1241;50.920;6.936;2022-08-03T16:40:21;33.70;69.90
2459;DHT22;1241;50.920;6.936;2022-08-03T16:42:49;33.70;69.90
2459;DHT22;1241;50.920;6.936;2022-08-03T16:45:14;33.80;69.70
2459;DHT22;1241;50.920;6.936;2022-08-03T16:47:40;33.90;69.40
2459;DHT22;1241;50.920;6.936;2022-08-03T16:50:06;33.90;69.40
2459;DHT22;1241;50.920;6.936;2022-08-03T16:52:32;33.80;69.00
2459;DHT22;1241;50.920;6.936;2022-08-03T16:54:58;33.80;69.00
2459;DHT22;1241;50.920;6.936;2022-08-03T16:57:24;33.80;69.30